createdAt,value
2022-12-25T00:01:07.647Z,43.00
2022-12-25T00:06:01.458Z,42.90
2022-12-25T00:08:27.919Z,42.80
2022-12-25T00:10:54.398Z,43.00
2022-12-25T00:13:20.893Z,43.30
2022-12-25T00:15:47.373Z,42.50
2022-12-25T00:18:13.820Z,42.80
2022-12-25T00:20:40.254Z,43.20
2022-12-25T00:25:33.663Z,42.40
2022-12-25T00:28:00.148Z,42.80
2022-12-25T00:30:26.613Z,43.00
2022-12-25T00:35:20.090Z,42.80
2022-12-25T00:37:46.603Z,42.80
2022-12-25T00:40:13.105Z,42.70
2022-12-25T00:45:06.554Z,43.00
2022-12-25T00:47:33.021Z,42.90
2022-12-25T00:49:59.456Z,43.00
2022-12-25T00:54:52.951Z,42.60
2022-12-25T00:57:19.432Z,42.70
2022-12-25T00:59:45.913Z,43.50
2022-12-25T01:04:39.444Z,42.60
2022-12-25T01:07:05.928Z,42.70
2022-12-25T01:11:59.413Z,42.90
2022-12-25T01:14:25.856Z,43.10
2022-12-25T01:16:52.417Z,42.80
2022-12-25T01:21:46.025Z,43.30
2022-12-25T01:24:12.463Z,42.90
2022-12-25T01:26:38.926Z,42.90
2022-12-25T01:31:32.430Z,43.00
2022-12-25T01:33:59.015Z,42.80
2022-12-25T01:38:52.475Z,43.00
2022-12-25T01:41:18.938Z,44.00
2022-12-25T01:43:45.408Z,42.90
2022-12-25T01:48:38.944Z,42.60
2022-12-25T01:51:05.422Z,42.90
2022-12-25T01:53:31.940Z,42.80
2022-12-25T01:55:58.395Z,42.80
2022-12-25T01:58:24.853Z,43.10
2022-12-25T02:00:51.308Z,42.90
2022-12-25T02:03:17.873Z,42.20
2022-12-25T02:05:44.382Z,43.00
2022-12-25T02:10:37.762Z,42.60
2022-12-25T02:13:04.271Z,42.60
2022-12-25T02:15:30.857Z,42.70
2022-12-25T02:20:24.287Z,42.70
2022-12-25T02:22:50.759Z,43.20
2022-12-25T02:27:44.175Z,42.80
2022-12-25T02:30:10.605Z,42.80
2022-12-25T02:35:03.977Z,43.40
2022-12-25T02:37:30.430Z,42.90
2022-12-25T02:39:56.877Z,43.10
2022-12-25T02:42:23.386Z,42.80
2022-12-25T02:44:49.835Z,42.70
2022-12-25T02:47:16.298Z,42.60
2022-12-25T02:49:42.782Z,42.80
2022-12-25T02:52:09.260Z,43.10
2022-12-25T02:54:35.765Z,41.80
2022-12-25T02:57:02.208Z,42.90
2022-12-25T03:01:55.761Z,42.80
2022-12-25T03:04:22.365Z,42.80
2022-12-25T03:09:15.832Z,42.20
2022-12-25T03:11:42.336Z,42.80
2022-12-25T03:14:08.779Z,42.20
2022-12-25T03:16:35.321Z,42.80
2022-12-25T03:19:01.801Z,43.30
2022-12-25T03:21:28.242Z,42.70
2022-12-25T03:23:54.723Z,43.20
2022-12-25T03:26:21.201Z,42.90
2022-12-25T03:31:14.653Z,43.20
2022-12-25T03:33:45.696Z,43.30
2022-12-25T03:36:12.510Z,43.40
2022-12-25T03:38:38.975Z,42.90
2022-12-25T03:41:05.449Z,42.80
2022-12-25T03:43:31.954Z,43.20
2022-12-25T03:45:58.501Z,43.10
2022-12-25T03:48:24.954Z,42.80
2022-12-25T03:50:51.525Z,43.00
2022-12-25T03:53:17.981Z,43.10
2022-12-25T03:55:44.500Z,42.90
2022-12-25T03:58:10.943Z,42.90
2022-12-25T04:00:37.421Z,43.00
2022-12-25T04:03:03.995Z,42.90
2022-12-25T04:05:30.511Z,43.20
2022-12-25T04:07:56.967Z,43.00
2022-12-25T04:12:50.468Z,43.00
2022-12-25T04:17:43.913Z,43.00
2022-12-25T04:20:10.401Z,43.00
2022-12-25T04:22:36.883Z,43.10
2022-12-25T04:25:03.348Z,42.90
2022-12-25T04:29:56.789Z,42.60
2022-12-25T04:32:23.263Z,43.20
2022-12-25T04:34:49.746Z,43.10
2022-12-25T04:37:16.216Z,43.30
2022-12-25T04:42:09.574Z,43.10
2022-12-25T04:49:37.572Z,42.90
2022-12-25T04:52:04.061Z,42.80
2022-12-25T04:54:30.515Z,43.00
2022-12-25T04:56:57.041Z,43.10
2022-12-25T05:01:50.509Z,43.20
2022-12-25T05:04:17.051Z,43.30
2022-12-25T05:06:43.531Z,43.20
2022-12-25T05:09:10.029Z,43.30
2022-12-25T05:11:36.507Z,43.10
2022-12-25T05:14:02.983Z,43.20
2022-12-25T05:16:29.615Z,43.00
2022-12-25T05:21:23.086Z,43.50
2022-12-25T05:23:49.583Z,43.10
2022-12-25T05:28:43.083Z,43.30
2022-12-25T05:31:09.585Z,43.20
2022-12-25T05:33:36.098Z,42.20
2022-12-25T05:38:29.506Z,43.30
2022-12-25T05:40:55.990Z,43.10
2022-12-25T05:43:22.447Z,42.50
2022-12-25T05:48:15.936Z,43.20
2022-12-25T05:50:42.381Z,43.30
2022-12-25T05:53:09.077Z,43.10
2022-12-25T05:55:35.592Z,43.20
2022-12-25T06:00:29.081Z,43.00
2022-12-25T06:05:22.750Z,43.40
2022-12-25T06:07:49.256Z,42.00
2022-12-25T06:10:15.741Z,43.10
2022-12-25T06:15:09.215Z,43.10
2022-12-25T06:17:35.677Z,43.00
2022-12-25T06:22:29.090Z,42.90
2022-12-25T06:24:55.606Z,42.50
2022-12-25T06:27:22.112Z,42.90
2022-12-25T06:29:48.599Z,43.10
2022-12-25T06:32:15.253Z,42.90
2022-12-25T06:34:41.697Z,43.20
2022-12-25T06:37:08.181Z,42.90
2022-12-25T06:39:34.641Z,43.00
2022-12-25T06:44:28.233Z,42.80
2022-12-25T06:46:54.732Z,43.10
2022-12-25T06:51:48.132Z,42.80
2022-12-25T06:54:14.580Z,43.00
2022-12-25T06:56:41.068Z,42.90
2022-12-25T06:59:07.518Z,42.60
2022-12-25T07:04:01.129Z,42.80
2022-12-25T07:06:27.603Z,42.90
2022-12-25T07:11:21.085Z,42.60
2022-12-25T07:13:47.535Z,42.70
2022-12-25T07:16:14.032Z,43.00
2022-12-25T07:18:40.545Z,43.10
2022-12-25T07:21:07.053Z,42.70
2022-12-25T07:23:33.545Z,42.70
2022-12-25T07:26:00.095Z,42.80
2022-12-25T07:28:26.537Z,42.80
2022-12-25T07:33:19.996Z,41.80
2022-12-25T07:35:46.438Z,42.80
2022-12-25T07:38:12.876Z,42.60
2022-12-25T07:43:06.352Z,43.30
2022-12-25T07:50:32.196Z,42.80
2022-12-25T07:52:58.697Z,43.00
2022-12-25T07:55:25.146Z,43.00
2022-12-25T07:57:51.637Z,42.70
2022-12-25T08:02:45.358Z,42.70
2022-12-25T08:05:11.928Z,43.00
2022-12-25T08:10:05.351Z,42.60
2022-12-25T08:12:31.863Z,42.70
2022-12-25T08:14:58.389Z,42.80
2022-12-25T08:19:51.829Z,42.50
2022-12-25T08:22:18.305Z,42.50
2022-12-25T08:24:44.741Z,42.50
2022-12-25T08:32:05.089Z,42.50
2022-12-25T08:36:58.597Z,42.60
2022-12-25T08:39:25.150Z,42.50
2022-12-25T08:44:18.668Z,42.70
2022-12-25T08:46:45.249Z,42.70
2022-12-25T08:49:11.768Z,42.80
2022-12-25T08:54:05.256Z,42.60
2022-12-25T08:56:31.758Z,42.90
2022-12-25T09:01:25.338Z,43.00
2022-12-25T09:03:51.990Z,42.60
2022-12-25T09:06:18.531Z,42.90
2022-12-25T09:08:49.111Z,42.40
2022-12-25T09:11:16.279Z,42.50
2022-12-25T09:16:09.883Z,42.80
2022-12-25T09:18:36.485Z,42.40
2022-12-25T09:21:02.937Z,42.70
2022-12-25T09:23:29.401Z,42.70
2022-12-25T09:25:55.887Z,42.60
2022-12-25T09:28:22.370Z,42.80
2022-12-25T09:30:48.931Z,42.90
2022-12-25T09:35:42.372Z,42.50
2022-12-25T09:38:08.829Z,42.60
2022-12-25T09:43:03.372Z,42.50
2022-12-25T09:45:29.869Z,42.70
2022-12-25T09:50:23.300Z,43.10
2022-12-25T09:52:49.731Z,43.10
2022-12-25T09:55:20.012Z,43.20
2022-12-25T10:05:08.334Z,44.50
2022-12-25T10:07:34.823Z,43.70
2022-12-25T10:10:01.327Z,43.40
2022-12-25T10:12:27.775Z,43.70
2022-12-25T10:14:54.211Z,43.70
2022-12-25T10:17:20.657Z,43.00
2022-12-25T10:19:47.171Z,44.50
2022-12-25T10:22:13.673Z,43.40
2022-12-25T10:24:40.182Z,44.40
2022-12-25T10:27:06.663Z,43.20
2022-12-25T10:29:33.161Z,43.00
2022-12-25T10:34:26.577Z,43.50
2022-12-25T10:36:53.060Z,43.20
2022-12-25T10:39:19.533Z,43.40
2022-12-25T10:41:46.271Z,43.30
2022-12-25T10:44:12.808Z,43.60
2022-12-25T10:46:39.357Z,43.10
2022-12-25T10:49:05.849Z,44.90
2022-12-25T10:51:32.353Z,43.40
2022-12-25T10:53:58.861Z,43.60
2022-12-25T10:56:25.351Z,43.40
2022-12-25T10:58:51.819Z,43.50
2022-12-25T11:01:18.370Z,43.70
2022-12-25T11:06:12.006Z,43.40
2022-12-25T11:08:38.501Z,43.70
2022-12-25T11:11:04.980Z,43.80
2022-12-25T11:15:58.443Z,43.80
2022-12-25T11:18:24.911Z,43.60
2022-12-25T11:23:18.364Z,43.90
2022-12-25T11:30:38.741Z,45.10
2022-12-25T11:33:05.198Z,43.70
2022-12-25T11:40:25.673Z,44.00
2022-12-25T11:42:52.175Z,44.00
2022-12-25T11:47:45.652Z,43.20
2022-12-25T11:52:39.066Z,45.00
2022-12-25T11:55:05.531Z,44.00
2022-12-25T12:02:26.093Z,44.00
2022-12-25T12:09:46.538Z,44.80
2022-12-25T12:12:12.982Z,44.30
2022-12-25T12:14:39.476Z,44.30
2022-12-25T12:17:06.018Z,43.90
2022-12-25T12:19:32.515Z,44.40
2022-12-25T12:21:59.004Z,44.20
2022-12-25T12:24:25.443Z,44.00
2022-12-25T12:26:51.970Z,44.00
2022-12-25T12:31:45.513Z,43.90
2022-12-25T12:34:12.032Z,43.70
2022-12-25T12:36:38.475Z,44.20
2022-12-25T12:39:04.959Z,44.20
2022-12-25T12:41:31.526Z,44.10
2022-12-25T12:43:57.988Z,44.60
2022-12-25T12:46:30.411Z,43.70
2022-12-25T12:48:57.938Z,43.30
2022-12-25T12:51:24.422Z,44.40
2022-12-25T12:53:50.871Z,44.00
2022-12-25T12:56:18.479Z,44.20
2022-12-25T12:58:44.943Z,44.10
2022-12-25T13:03:38.606Z,43.80
2022-12-25T13:06:05.055Z,45.30
2022-12-25T13:10:58.444Z,45.60
2022-12-25T13:13:24.923Z,44.60
2022-12-25T13:15:51.430Z,45.00
2022-12-25T13:20:44.857Z,44.90
2022-12-25T13:23:11.289Z,45.00
2022-12-25T13:25:37.768Z,45.20
2022-12-25T13:32:58.205Z,44.50
2022-12-25T13:35:24.660Z,44.60
2022-12-25T13:37:51.165Z,45.40
2022-12-25T13:40:17.657Z,44.70
2022-12-25T13:42:44.159Z,45.80
2022-12-25T13:45:10.609Z,46.00
2022-12-25T13:47:37.200Z,46.00
2022-12-25T13:50:03.715Z,45.90
2022-12-25T13:52:30.232Z,46.50
2022-12-25T13:54:56.736Z,44.80
2022-12-25T13:57:23.183Z,45.20
2022-12-25T14:02:16.877Z,44.70
2022-12-25T14:04:43.525Z,44.20
2022-12-25T14:09:36.972Z,44.60
2022-12-25T14:12:03.481Z,44.60
2022-12-25T14:16:56.915Z,44.30
2022-12-25T14:19:23.487Z,44.30
2022-12-25T14:21:49.953Z,44.40
2022-12-25T14:26:43.405Z,44.50
2022-12-25T14:29:15.602Z,45.20
2022-12-25T14:31:43.901Z,45.10
2022-12-25T14:34:10.364Z,44.60
2022-12-25T14:36:36.819Z,44.80
2022-12-25T14:41:30.253Z,44.60
2022-12-25T14:43:56.750Z,44.90
2022-12-25T14:46:23.290Z,44.80
2022-12-25T14:48:49.827Z,44.60
2022-12-25T14:51:16.353Z,44.30
2022-12-25T14:53:42.806Z,44.70
2022-12-25T14:56:09.302Z,44.60
2022-12-25T14:58:35.752Z,45.50
2022-12-25T15:03:29.357Z,45.70
2022-12-25T15:05:55.931Z,45.30
2022-12-25T15:11:04.883Z,45.00
2022-12-25T15:13:31.534Z,44.90
2022-12-25T15:15:58.033Z,44.80
2022-12-25T15:20:51.599Z,45.30
2022-12-25T15:23:19.829Z,45.00
2022-12-25T15:28:13.828Z,44.20
2022-12-25T15:30:40.336Z,44.70
2022-12-25T15:33:06.810Z,44.70
2022-12-25T15:35:33.274Z,44.60
2022-12-25T15:37:59.758Z,44.50
2022-12-25T15:40:26.247Z,44.50
2022-12-25T15:42:56.325Z,44.40
2022-12-25T15:45:23.274Z,44.40
2022-12-25T15:47:49.781Z,44.40
2022-12-25T15:50:16.217Z,44.40
2022-12-25T15:52:42.709Z,44.20
2022-12-25T15:55:09.153Z,44.40
2022-12-25T15:57:35.668Z,44.40
2022-12-25T16:02:29.249Z,44.30
2022-12-25T16:04:55.857Z,44.40
2022-12-25T16:09:49.298Z,44.00
2022-12-25T16:12:15.804Z,44.30
2022-12-25T16:14:42.343Z,44.30
2022-12-25T16:19:35.790Z,44.00
2022-12-25T16:22:02.244Z,44.10
2022-12-25T16:24:28.695Z,44.20
2022-12-25T16:26:55.171Z,44.10
2022-12-25T16:29:21.651Z,43.90
2022-12-25T16:31:48.155Z,44.00
2022-12-25T16:34:14.667Z,44.00
2022-12-25T16:36:41.181Z,44.30
2022-12-25T16:41:34.779Z,44.00
2022-12-25T16:44:01.253Z,44.00
2022-12-25T16:46:27.787Z,43.70
2022-12-25T16:48:54.280Z,43.70
2022-12-25T16:51:20.773Z,43.80
2022-12-25T16:53:47.222Z,43.80
2022-12-25T16:56:13.662Z,44.10
2022-12-25T16:58:40.162Z,43.60
2022-12-25T17:01:06.615Z,43.90
2022-12-25T17:03:33.202Z,44.00
2022-12-25T17:05:59.841Z,44.10
2022-12-25T17:08:26.316Z,44.20
2022-12-25T17:13:19.697Z,44.30
2022-12-25T17:15:50.393Z,44.10
2022-12-25T17:20:44.250Z,44.40
2022-12-25T17:23:10.710Z,43.80
2022-12-25T17:25:37.175Z,44.20
2022-12-25T17:28:03.657Z,44.10
2022-12-25T17:30:30.149Z,44.40
2022-12-25T17:32:56.628Z,44.30
2022-12-25T17:35:23.072Z,44.10
2022-12-25T17:37:49.553Z,44.30
2022-12-25T17:40:16.033Z,44.10
2022-12-25T17:42:42.521Z,44.00
2022-12-25T17:45:09.004Z,44.20
2022-12-25T17:47:35.488Z,44.50
2022-12-25T17:50:02.002Z,44.40
2022-12-25T17:54:55.513Z,44.30
2022-12-25T17:57:21.986Z,44.50
2022-12-25T17:59:48.419Z,44.40
2022-12-25T18:04:42.008Z,45.00
2022-12-25T18:07:08.457Z,43.80
2022-12-25T18:12:01.862Z,44.30
2022-12-25T18:14:28.353Z,44.10
2022-12-25T18:16:54.887Z,44.10
2022-12-25T18:19:21.342Z,44.20
2022-12-25T18:21:47.797Z,44.10
2022-12-25T18:24:14.247Z,44.00
2022-12-25T18:26:40.736Z,43.60
2022-12-25T18:29:07.244Z,44.30
2022-12-25T18:31:33.788Z,44.30
2022-12-25T18:34:00.416Z,44.00
2022-12-25T18:36:26.978Z,43.70
2022-12-25T18:38:53.483Z,44.60
2022-12-25T18:41:19.929Z,44.00
2022-12-25T18:46:22.015Z,44.20
2022-12-25T18:51:15.475Z,43.40
2022-12-25T18:53:41.919Z,43.90
2022-12-25T18:56:08.364Z,44.00
2022-12-25T18:58:34.810Z,43.80
2022-12-25T19:03:28.493Z,43.80
2022-12-25T19:05:54.997Z,43.90
2022-12-25T19:08:22.192Z,44.00
2022-12-25T19:10:48.684Z,44.40
2022-12-25T19:13:15.197Z,44.00
2022-12-25T19:18:08.608Z,43.90
2022-12-25T19:20:35.093Z,43.80
2022-12-25T19:23:01.552Z,43.60
2022-12-25T19:25:28.033Z,44.10
2022-12-25T19:27:54.524Z,43.60
2022-12-25T19:30:21.007Z,43.90
2022-12-25T19:35:14.468Z,44.60
2022-12-25T19:37:40.971Z,44.70
2022-12-25T19:40:07.484Z,44.70
2022-12-25T19:42:33.984Z,44.50
2022-12-25T19:45:00.436Z,44.80
2022-12-25T19:47:26.895Z,44.80
2022-12-25T19:49:54.402Z,44.70
2022-12-25T19:57:16.805Z,44.70
2022-12-25T20:02:10.379Z,44.70
2022-12-25T20:04:36.969Z,44.50
2022-12-25T20:09:30.474Z,44.90
2022-12-25T20:11:56.919Z,44.70
2022-12-25T20:14:23.409Z,44.70
2022-12-25T20:19:17.109Z,44.90
2022-12-25T20:21:43.614Z,44.80
2022-12-25T20:26:37.103Z,44.80
2022-12-25T20:29:03.595Z,44.40
2022-12-25T20:31:30.159Z,45.10
2022-12-25T20:33:56.719Z,44.90
2022-12-25T20:36:23.239Z,44.90
2022-12-25T20:38:49.728Z,45.80
2022-12-25T20:41:31.457Z,45.50
2022-12-25T20:43:58.038Z,45.00
2022-12-25T20:46:24.776Z,44.10
2022-12-25T20:56:12.426Z,44.70
2022-12-25T20:58:38.897Z,44.40
2022-12-25T21:01:05.414Z,44.20
2022-12-25T21:03:32.060Z,45.60
2022-12-25T21:05:58.619Z,45.40
2022-12-25T21:08:25.089Z,44.50
2022-12-25T21:10:51.545Z,44.30
2022-12-25T21:13:18.025Z,44.50
2022-12-25T21:15:44.534Z,44.40
2022-12-25T21:18:10.976Z,44.30
2022-12-25T21:25:31.412Z,44.40
2022-12-25T21:32:51.982Z,44.30
2022-12-25T21:35:18.461Z,44.40
2022-12-25T21:45:10.014Z,44.10
2022-12-25T21:48:01.434Z,44.00
2022-12-25T21:50:22.955Z,44.00
2022-12-25T21:52:49.385Z,44.10
2022-12-25T21:55:15.860Z,44.10
2022-12-25T21:57:42.298Z,43.70
2022-12-25T22:00:08.776Z,43.90
2022-12-25T22:02:35.387Z,44.00
2022-12-25T22:07:28.899Z,43.80
2022-12-25T22:09:55.403Z,44.20
2022-12-25T22:12:21.916Z,43.60
2022-12-25T22:17:19.507Z,43.70
2022-12-25T22:19:46.019Z,43.90
2022-12-25T22:24:39.390Z,43.60
2022-12-25T22:27:05.831Z,43.60
2022-12-25T22:29:32.330Z,43.60
2022-12-25T22:31:58.802Z,43.80
2022-12-25T22:41:46.196Z,43.40
2022-12-25T22:44:17.625Z,43.40
2022-12-25T22:46:44.757Z,43.20
2022-12-25T22:49:11.368Z,43.00
2022-12-25T22:54:04.840Z,43.40
2022-12-25T22:56:31.335Z,43.70
2022-12-25T22:58:57.789Z,43.30
2022-12-25T23:01:24.288Z,43.30
2022-12-25T23:03:50.858Z,43.50
2022-12-25T23:06:17.372Z,43.60
2022-12-25T23:08:43.844Z,43.60
2022-12-25T23:16:04.437Z,43.60
2022-12-25T23:20:57.940Z,43.70
2022-12-25T23:23:24.420Z,43.50
2022-12-25T23:28:17.861Z,43.20
2022-12-25T23:30:44.324Z,43.30
2022-12-25T23:33:10.771Z,43.40
2022-12-25T23:35:37.282Z,43.40
2022-12-25T23:38:03.749Z,43.20
2022-12-25T23:40:30.211Z,43.30
2022-12-25T23:42:56.653Z,43.30
2022-12-25T23:45:23.131Z,43.30
2022-12-25T23:47:49.639Z,43.20
2022-12-25T23:52:43.068Z,43.30
2022-12-25T23:55:09.548Z,43.30
2022-12-25T23:57:36.013Z,43.20
